Time;durP1;ratioP1;P1;durP2;ratioP2;P2;SDS_P1;SDS_P2;PMS_P1;PMS_P2;Temp;Humidity;BMP_temperature;BMP_pressure;BME280_temperature;BME280_humidity;BME280_pressure;Samples;Min_cycle;Max_cycle;Signal;HPM_P1;HPM_P2
2023/09/21 00:00:09;;;;;;;;;;;;;;;18.02;42.26;99925.66;4928553;28;98447;-63
2023/09/21 00:02:44;;;;;;;;;;;;;;;18.00;42.53;99918.94;4944543;28;98288;-63
2023/09/21 00:05:11;;;;;;;;;;;;;;;17.97;42.32;99914.97;4958029;28;98550;-63
2023/09/21 00:07:37;;;;;;;;;;;;;;;17.96;42.46;99910.63;4964613;28;98400;-57
2023/09/21 00:10:06;;;;;;;;;;;;;;;17.96;42.31;99909.81;4939889;28;99005;-63
2023/09/21 00:12:35;;;;;;;;;;;;;;;17.94;42.45;99903.91;4928649;28;98363;-57
2023/09/21 00:15:06;;;;;;;;;;;;;;;17.93;42.34;99903.13;4927825;28;98112;-57
2023/09/21 00:17:33;;;;;;;;;;;;;;;17.92;42.39;99904.25;4943252;28;98214;-63
2023/09/21 00:20:12;;;;;;;;;;;;;;;17.91;42.48;99903.41;4955802;28;99539;-62
2023/09/21 00:22:39;;;;;;;;;;;;;;;17.90;42.50;99903.75;4959847;28;98552;-56
2023/09/21 00:25:14;;;;;;;;;;;;;;;17.87;42.61;99894.31;4942901;28;98476;-63
2023/09/21 00:27:41;;;;;;;;;;;;;;;17.88;42.58;99897.81;4949061;28;98644;-63
2023/09/21 00:30:07;;;;;;;;;;;;;;;17.84;42.52;99892.25;4976077;27;97999;-63
2023/09/21 00:32:38;;;;;;;;;;;;;;;17.83;42.48;99884.41;4946983;28;98148;-57
2023/09/21 00:35:08;;;;;;;;;;;;;;;17.82;42.53;99888.25;4957761;28;98039;-58
2023/09/21 00:37:36;;;;;;;;;;;;;;;17.79;42.40;99880.72;4965986;28;98433;-63
2023/09/21 00:40:13;;;;;;;;;;;;;;;17.76;42.60;99882.19;4962629;28;99016;-63
2023/09/21 00:42:41;;;;;;;;;;;;;;;17.73;42.54;99882.03;4975208;27;100118;-63
2023/09/21 00:45:08;;;;;;;;;;;;;;;17.71;42.64;99878.81;4959585;28;98213;-56
2023/09/21 00:47:43;;;;;;;;;;;;;;;17.67;42.65;99878.69;4960890;28;97961;-57
2023/09/21 00:50:12;;;;;;;;;;;;;;;17.64;42.72;99865.72;4957328;28;99125;-58
2023/09/21 00:52:50;;;;;;;;;;;;;;;17.62;42.71;99865.25;4958801;28;99539;-62
2023/09/21 00:55:30;;;;;;;;;;;;;;;17.59;42.46;99860.47;4947479;28;99356;-63
2023/09/21 00:58:01;;;;;;;;;;;;;;;17.57;42.53;99865.44;4961842;27;98788;-57
2023/09/21 01:00:30;;;;;;;;;;;;;;;17.54;42.71;99853.28;4954769;28;98336;-56
2023/09/21 01:03:00;;;;;;;;;;;;;;;17.52;42.79;99858.22;4958677;28;99816;-57
2023/09/21 01:05:26;;;;;;;;;;;;;;;17.50;42.57;99862.44;4959036;28;98415;-56
2023/09/21 01:07:55;;;;;;;;;;;;;;;17.47;42.46;99866.59;4959175;28;98222;-57
2023/09/21 01:10:23;;;;;;;;;;;;;;;17.46;42.49;99862.28;4956162;28;99391;-56
2023/09/21 01:12:49;;;;;;;;;;;;;;;17.42;42.67;99861.34;4955081;28;98420;-56
2023/09/21 01:15:15;;;;;;;;;;;;;;;17.38;42.54;99861.19;4960028;28;98237;-56
2023/09/21 01:17:42;;;;;;;;;;;;;;;17.36;42.58;99855.25;4944053;28;98513;-56
2023/09/21 01:20:17;;;;;;;;;;;;;;;17.33;42.72;99849.66;4944466;28;100049;-63
2023/09/21 01:22:45;;;;;;;;;;;;;;;17.30;42.58;99848.41;4925527;28;99424;-56
2023/09/21 01:25:14;;;;;;;;;;;;;;;17.28;42.68;99858.03;4962458;28;99685;-63
2023/09/21 01:27:41;;;;;;;;;;;;;;;17.25;42.63;99845.06;4962809;27;97915;-63
2023/09/21 01:30:11;;;;;;;;;;;;;;;17.22;42.75;99843.81;4961881;28;98043;-56
2023/09/21 01:32:38;;;;;;;;;;;;;;;17.20;42.70;99834.34;4958613;28;98246;-56
2023/09/21 01:35:06;;;;;;;;;;;;;;;17.17;42.69;99835.78;4964811;28;99018;-63
2023/09/21 01:37:32;;;;;;;;;;;;;;;17.17;42.59;99835.78;4960227;28;98203;-56
2023/09/21 01:40:00;;;;;;;;;;;;;;;17.15;42.60;99827.16;4961439;28;98408;-58
2023/09/21 01:42:26;;;;;;;;;;;;;;;17.13;42.74;99832.13;4962530;28;100460;-56
2023/09/21 01:44:52;;;;;;;;;;;;;;;17.11;42.75;99826.22;4963299;27;98207;-63
2023/09/21 01:47:19;;;;;;;;;;;;;;;17.08;42.69;99829.59;4949399;28;100889;-63
2023/09/21 01:49:45;;;;;;;;;;;;;;;17.07;42.70;99833.44;4945590;28;98748;-57
2023/09/21 01:52:11;;;;;;;;;;;;;;;17.05;42.66;99824.78;4963676;28;126826;-56
2023/09/21 01:54:38;;;;;;;;;;;;;;;17.04;42.71;99831.38;4960452;28;98727;-57
2023/09/21 01:57:08;;;;;;;;;;;;;;;17.03;42.71;99824.34;4973036;28;98377;-56
2023/09/21 01:59:35;;;;;;;;;;;;;;;17.01;42.75;99829.28;4962078;28;98310;-63
2023/09/21 02:02:01;;;;;;;;;;;;;;;16.98;42.83;99821.75;4960766;28;97947;-63
2023/09/21 02:04:27;;;;;;;;;;;;;;;16.96;42.94;99818.59;4947969;28;98984;-56
2023/09/21 02:06:54;;;;;;;;;;;;;;;16.94;42.85;99816.19;4948433;28;98127;-56
2023/09/21 02:09:20;;;;;;;;;;;;;;;16.89;42.82;99819.88;4946552;28;99335;-57
2023/09/21 02:11:47;;;;;;;;;;;;;;;16.88;42.80;99814.75;4935377;28;99580;-56
2023/09/21 02:14:13;;;;;;;;;;;;;;;16.86;42.81;99820.53;4976716;27;98328;-56
2023/09/21 02:16:40;;;;;;;;;;;;;;;16.84;42.89;99816.53;4978902;27;99077;-56
2023/09/21 02:19:07;;;;;;;;;;;;;;;16.80;42.99;99804.69;4950131;28;99535;-56
2023/09/21 02:21:34;;;;;;;;;;;;;;;16.77;42.96;99800.69;4964412;28;99539;-56
2023/09/21 02:24:00;;;;;;;;;;;;;;;16.74;42.79;99814.16;4930504;28;98076;-63
2023/09/21 02:26:27;;;;;;;;;;;;;;;16.71;43.01;99801.19;4966117;28;100642;-57
2023/09/21 02:28:53;;;;;;;;;;;;;;;16.68;43.02;99802.63;4965948;28;98087;-57
2023/09/21 02:31:22;;;;;;;;;;;;;;;16.65;42.88;99801.34;4945209;28;98030;-57
2023/09/21 02:33:48;;;;;;;;;;;;;;;16.64;42.91;99796.22;4947204;28;98460;-63
2023/09/21 02:36:19;;;;;;;;;;;;;;;16.61;42.97;99799.59;4945731;28;98313;-56
2023/09/21 02:38:45;;;;;;;;;;;;;;;16.60;42.84;99792.56;4961052;28;99495;-63
2023/09/21 02:41:11;;;;;;;;;;;;;;;16.56;43.01;99792.41;4929088;28;100116;-63
2023/09/21 02:43:40;;;;;;;;;;;;;;;16.54;43.02;99791.91;4945277;28;98594;-63
2023/09/21 02:46:06;;;;;;;;;;;;;;;16.52;43.06;99790.66;4944391;28;99393;-57
2023/09/21 02:48:34;;;;;;;;;;;;;;;16.51;43.10;99797.22;4958357;28;112460;-57
2023/09/21 02:51:04;;;;;;;;;;;;;;;16.48;43.08;99787.78;4943637;28;99771;-62
2023/09/21 02:53:30;;;;;;;;;;;;;;;16.46;42.88;99792.72;4961792;28;99565;-63
2023/09/21 02:55:57;;;;;;;;;;;;;;;16.43;42.82;99794.19;4976777;27;98822;-63
2023/09/21 02:58:23;;;;;;;;;;;;;;;16.40;42.99;99788.59;4945098;28;98035;-56
2023/09/21 03:00:49;;;;;;;;;;;;;;;16.37;43.02;99790.03;4958905;28;98458;-61
2023/09/21 03:03:17;;;;;;;;;;;;;;;16.33;43.01;99791.78;4972369;27;97971;-57
2023/09/21 03:05:47;;;;;;;;;;;;;;;16.31;43.09;99787.78;4947577;28;98523;-62
2023/09/21 03:08:13;;;;;;;;;;;;;;;16.29;43.10;99787.31;4933711;28;98091;-63
2023/09/21 03:10:40;;;;;;;;;;;;;;;16.26;42.97;99794.19;4976440;27;98341;-62
2023/09/21 03:13:06;;;;;;;;;;;;;;;16.24;43.06;99788.28;4941789;28;99084;-63
2023/09/21 03:15:36;;;;;;;;;;;;;;;16.20;43.08;99782.69;4961487;28;97931;-56
2023/09/21 03:18:07;;;;;;;;;;;;;;;16.18;43.10;99782.19;4944841;28;101221;-57
2023/09/21 03:20:37;;;;;;;;;;;;;;;16.15;43.16;99769.28;4962622;28;99465;-62
2023/09/21 03:23:09;;;;;;;;;;;;;;;16.13;43.20;99776.16;4931400;28;98312;-56
2023/09/21 03:25:40;;;;;;;;;;;;;;;16.09;42.99;99777.91;4966031;28;98172;-57
2023/09/21 03:28:12;;;;;;;;;;;;;;;16.05;43.04;99764.16;4946085;28;99886;-63
2023/09/21 03:30:42;;;;;;;;;;;;;;;16.03;43.21;99757.44;4932933;28;101601;-63
2023/09/21 03:33:09;;;;;;;;;;;;;;;16.01;43.08;99756.97;4945479;28;99019;-61
2023/09/21 03:35:37;;;;;;;;;;;;;;;16.00;43.11;99756.16;4958373;28;99109;-56
2023/09/21 03:38:06;;;;;;;;;;;;;;;15.97;43.10;99751.38;4959931;28;98203;-58
2023/09/21 03:40:34;;;;;;;;;;;;;;;15.93;43.12;99751.19;4959270;28;98849;-56
2023/09/21 03:43:01;;;;;;;;;;;;;;;15.91;43.09;99753.44;4961155;28;98297;-63
2023/09/21 03:45:27;;;;;;;;;;;;;;;15.88;43.29;99756.81;4977050;27;98182;-62
2023/09/21 03:47:54;;;;;;;;;;;;;;;15.86;43.07;99750.09;4974054;27;98831;-56
2023/09/21 03:50:25;;;;;;;;;;;;;;;15.85;43.23;99753.94;4929265;28;97909;-56
2023/09/21 03:52:53;;;;;;;;;;;;;;;15.85;43.25;99751.22;4945823;28;99656;-56
2023/09/21 03:55:19;;;;;;;;;;;;;;;15.82;43.26;99749.13;4937748;28;98080;-56
2023/09/21 03:57:50;;;;;;;;;;;;;;;15.82;43.34;99752.63;4943778;28;98060;-56
2023/09/21 04:00:29;;;;;;;;;;;;;;;15.82;43.30;99752.63;4974406;27;99331;-63
2023/09/21 04:02:59;;;;;;;;;;;;;;;15.79;43.19;99747.84;4948953;28;99616;-57
2023/09/21 04:05:30;;;;;;;;;;;;;;;15.76;43.14;99748.50;4939292;28;98647;-63
2023/09/21 04:07:56;;;;;;;;;;;;;;;15.73;43.23;99743.69;4944199;28;98117;-56
2023/09/21 04:10:23;;;;;;;;;;;;;;;15.69;43.38;99748.97;4960547;28;98234;-56
2023/09/21 04:12:50;;;;;;;;;;;;;;;15.65;43.19;99742.56;4922212;28;99148;-57
2023/09/21 04:15:17;;;;;;;;;;;;;;;15.60;43.32;99736.44;4963183;28;99482;-57
2023/09/21 04:17:43;;;;;;;;;;;;;;;15.57;43.42;99732.47;4946350;28;100782;-63
2023/09/21 04:20:14;;;;;;;;;;;;;;;15.55;43.41;99731.16;4958421;28;98110;-56
2023/09/21 04:22:41;;;;;;;;;;;;;;;15.52;43.40;99734.50;4942883;28;98167;-57
2023/09/21 04:25:07;;;;;;;;;;;;;;;15.50;43.46;99734.84;4947561;28;97953;-63
2023/09/21 04:27:36;;;;;;;;;;;;;;;15.48;43.28;99728.91;4924384;28;98374;-56
2023/09/21 04:30:03;;;;;;;;;;;;;;;15.46;43.44;99720.31;4930122;28;99810;-56
2023/09/21 04:32:29;;;;;;;;;;;;;;;15.43;43.40;99719.00;4954752;28;98300;-57
2023/09/21 04:34:55;;;;;;;;;;;;;;;15.42;43.49;99722.06;4972457;27;98238;-63
2023/09/21 04:37:22;;;;;;;;;;;;;;;15.41;43.36;99726.69;4958879;28;97934;-63
2023/09/21 04:39:50;;;;;;;;;;;;;;;15.43;43.44;99729.06;4943841;28;98509;-63
2023/09/21 04:42:16;;;;;;;;;;;;;;;15.44;43.32;99725.25;4943682;28;99576;-57
2023/09/21 04:44:43;;;;;;;;;;;;;;;15.43;43.33;99721.72;4976927;27;98000;-57
2023/09/21 04:47:09;;;;;;;;;;;;;;;15.42;43.49;99722.84;4944513;28;98200;-57
2023/09/21 04:49:38;;;;;;;;;;;;;;;15.42;43.39;99716.63;4957541;28;99484;-56
2023/09/21 04:52:04;;;;;;;;;;;;;;;15.39;43.30;99720.75;4960431;28;122761;-63
2023/09/21 04:54:31;;;;;;;;;;;;;;;15.37;43.29;99720.28;4962035;27;98270;-63
2023/09/21 04:56:57;;;;;;;;;;;;;;;15.36;43.16;99721.38;4941509;28;98212;-63
2023/09/21 04:59:23;;;;;;;;;;;;;;;15.35;43.46;99717.09;4956105;28;98672;-63
2023/09/21 05:01:49;;;;;;;;;;;;;;;15.34;43.42;99714.69;4956507;28;98430;-63
2023/09/21 05:04:16;;;;;;;;;;;;;;;15.33;43.27;99716.63;4959575;27;98335;-63
2023/09/21 05:06:42;;;;;;;;;;;;;;;15.34;43.42;99722.84;4923301;28;98103;-56
2023/09/21 05:09:10;;;;;;;;;;;;;;;15.33;43.19;99713.91;4923912;28;98270;-57
2023/09/21 05:11:38;;;;;;;;;;;;;;;15.35;43.46;99719.78;4963259;27;98303;-57
2023/09/21 05:14:08;;;;;;;;;;;;;;;15.36;43.54;99717.88;4956051;28;98673;-56
2023/09/21 05:16:37;;;;;;;;;;;;;;;15.36;43.38;99721.38;4960572;28;98375;-57
2023/09/21 05:19:05;;;;;;;;;;;;;;;15.37;43.48;99722.22;4946664;28;98170;-62
2023/09/21 05:21:31;;;;;;;;;;;;;;;15.36;43.54;99715.16;4954661;28;99334;-56
2023/09/21 05:23:57;;;;;;;;;;;;;;;15.36;43.29;99721.38;4924882;28;99735;-56
2023/09/21 05:26:23;;;;;;;;;;;;;;;15.38;43.28;99721.88;4935367;28;126958;-62
2023/09/21 05:28:49;;;;;;;;;;;;;;;15.39;43.09;99718.03;4926227;28;99375;-56
2023/09/21 05:31:15;;;;;;;;;;;;;;;15.40;43.42;99716.91;4930304;28;98136;-62
2023/09/21 05:33:41;;;;;;;;;;;;;;;15.41;43.17;99710.41;4915598;28;98436;-56
2023/09/21 05:36:08;;;;;;;;;;;;;;;15.45;43.18;99716.78;4925923;28;99848;-62
2023/09/21 05:38:34;;;;;;;;;;;;;;;15.46;43.24;99714.88;4940046;28;98760;-62
2023/09/21 05:41:02;;;;;;;;;;;;;;;15.47;43.41;99709.09;4904470;28;98080;-55
2023/09/21 05:43:31;;;;;;;;;;;;;;;15.50;43.38;99704.97;4943310;28;97815;-56
2023/09/21 05:45:57;;;;;;;;;;;;;;;15.52;43.21;99702.72;4946703;28;98280;-56
2023/09/21 05:48:23;;;;;;;;;;;;;;;15.53;43.36;99709.78;4912575;28;98125;-55
2023/09/21 05:50:50;;;;;;;;;;;;;;;15.56;43.47;99705.59;4927170;28;98015;-61
2023/09/21 05:53:16;;;;;;;;;;;;;;;15.56;43.09;99697.44;4926638;28;99168;-63
2023/09/21 05:55:45;;;;;;;;;;;;;;;15.59;43.16;99699.53;4957383;28;101329;-56
2023/09/21 05:58:11;;;;;;;;;;;;;;;15.66;43.15;99699.91;4940887;28;99001;-56
2023/09/21 06:00:37;;;;;;;;;;;;;;;15.75;43.13;99702.59;4931623;28;98268;-56
2023/09/21 06:03:04;;;;;;;;;;;;;;;15.82;42.92;99700.22;4928559;28;98333;-63
2023/09/21 06:05:30;;;;;;;;;;;;;;;15.83;43.18;99699.09;4942772;28;98446;-56
2023/09/21 06:07:59;;;;;;;;;;;;;;;15.87;43.25;99702.75;4929453;28;98315;-56
2023/09/21 06:10:27;;;;;;;;;;;;;;;15.93;43.22;99694.13;4955132;28;98236;-62
2023/09/21 06:12:53;;;;;;;;;;;;;;;16.04;43.04;99694.59;4921012;28;98078;-63
2023/09/21 06:15:19;;;;;;;;;;;;;;;16.20;42.96;99689.47;4925693;28;99875;-62
2023/09/21 06:17:46;;;;;;;;;;;;;;;16.39;42.73;99692.63;4885392;28;99564;-62
2023/09/21 06:20:12;;;;;;;;;;;;;;;16.57;42.74;99681.66;4905068;28;98217;-56
2023/09/21 06:22:39;;;;;;;;;;;;;;;16.76;42.63;99678.56;4938361;28;98282;-62
2023/09/21 06:25:10;;;;;;;;;;;;;;;16.97;42.48;99679.41;4928556;28;99603;-56
2023/09/21 06:27:37;;;;;;;;;;;;;;;17.16;42.47;99679.00;4923338;28;98163;-56
2023/09/21 06:30:04;;;;;;;;;;;;;;;17.32;42.13;99679.22;4936882;28;98390;-63
2023/09/21 06:32:30;;;;;;;;;;;;;;;17.43;42.37;99675.75;4936595;28;101134;-56
2023/09/21 06:34:56;;;;;;;;;;;;;;;17.54;42.21;99687.06;4927048;28;98813;-56
2023/09/21 06:37:22;;;;;;;;;;;;;;;17.60;42.16;99680.28;4910163;28;98573;-56
2023/09/21 06:39:48;;;;;;;;;;;;;;;17.69;42.29;99682.94;4936620;28;99136;-57
2023/09/21 06:42:17;;;;;;;;;;;;;;;17.79;42.37;99679.84;4908277;28;98326;-62
2023/09/21 06:44:43;;;;;;;;;;;;;;;17.91;42.29;99679.88;4907557;28;98047;-62
2023/09/21 06:47:12;;;;;;;;;;;;;;;18.02;42.33;99677.53;4927124;28;98747;-62
2023/09/21 06:49:39;;;;;;;;;;;;;;;18.15;42.30;99681.09;4919615;28;98557;-62
2023/09/21 06:52:05;;;;;;;;;;;;;;;18.30;42.19;99679.66;4894034;28;98506;-62
2023/09/21 06:54:31;;;;;;;;;;;;;;;18.47;42.04;99668.56;4908590;28;98499;-61
2023/09/21 06:57:03;;;;;;;;;;;;;;;18.64;42.04;99673.81;4925326;28;98096;-56
2023/09/21 06:59:34;;;;;;;;;;;;;;;18.78;42.02;99669.97;4934536;28;98036;-56
2023/09/21 07:02:00;;;;;;;;;;;;;;;18.87;42.01;99665.22;4910820;28;98103;-62
2023/09/21 07:04:28;;;;;;;;;;;;;;;19.09;41.88;99663.94;4921874;28;100029;-62
2023/09/21 07:06:54;;;;;;;;;;;;;;;19.48;41.55;99658.84;4903082;28;98331;-56
2023/09/21 07:09:21;;;;;;;;;;;;;;;19.55;41.83;99657.13;4888886;28;101665;-56
2023/09/21 07:11:49;;;;;;;;;;;;;;;19.67;41.73;99659.03;4940048;28;98053;-56
2023/09/21 07:14:15;;;;;;;;;;;;;;;19.67;41.76;99655.50;4940670;28;98860;-56
2023/09/21 07:16:42;;;;;;;;;;;;;;;19.79;41.90;99655.47;4905210;28;98327;-62
2023/09/21 07:19:09;;;;;;;;;;;;;;;20.01;41.68;99654.91;4942490;28;98164;-63
2023/09/21 07:21:35;;;;;;;;;;;;;;;20.05;41.74;99647.59;4890085;28;101354;-62
2023/09/21 07:24:02;;;;;;;;;;;;;;;20.11;42.08;99645.38;4930778;28;107230;-57
2023/09/21 07:26:30;;;;;;;;;;;;;;;20.06;42.26;99653.84;4906880;28;98125;-63
2023/09/21 07:28:57;;;;;;;;;;;;;;;20.05;42.25;99658.53;4911992;28;97990;-63
2023/09/21 07:31:24;;;;;;;;;;;;;;;20.13;42.54;99653.25;4913845;28;98142;-62
2023/09/21 07:33:56;;;;;;;;;;;;;;;20.17;42.51;99652.19;4945397;28;98285;-56
2023/09/21 07:36:23;;;;;;;;;;;;;;;20.30;42.45;99653.69;4894963;28;98465;-56
2023/09/21 07:38:49;;;;;;;;;;;;;;;20.42;42.48;99649.31;4939920;28;99265;-57
2023/09/21 07:41:16;;;;;;;;;;;;;;;20.54;42.31;99641.81;4904590;28;98521;-63
2023/09/21 07:43:42;;;;;;;;;;;;;;;20.68;42.38;99640.59;4892993;28;98097;-63
2023/09/21 07:46:08;;;;;;;;;;;;;;;20.81;42.26;99645.59;4935837;28;99759;-62
2023/09/21 07:48:34;;;;;;;;;;;;;;;21.20;41.85;99625.72;4920918;28;98128;-63
2023/09/21 07:51:05;;;;;;;;;;;;;;;21.59;41.66;99625.78;4940158;28;98464;-62
2023/09/21 07:53:31;;;;;;;;;;;;;;;21.82;41.65;99629.38;4923727;28;98209;-56
2023/09/21 07:56:02;;;;;;;;;;;;;;;22.04;41.57;99622.31;4887202;28;99855;-56
2023/09/21 07:58:28;;;;;;;;;;;;;;;22.35;41.29;99624.06;4907080;28;98300;-57
2023/09/21 08:00:58;;;;;;;;;;;;;;;22.68;41.19;99622.66;4925739;28;98091;-57
2023/09/21 08:03:27;;;;;;;;;;;;;;;23.03;40.84;99620.47;4909363;28;98272;-57
2023/09/21 08:05:53;;;;;;;;;;;;;;;23.46;40.89;99621.03;4915100;28;98959;-63
2023/09/21 08:08:20;;;;;;;;;;;;;;;23.87;40.69;99614.81;4914121;28;99018;-63
2023/09/21 08:10:47;;;;;;;;;;;;;;;25.05;39.44;99618.56;4940876;28;99037;-57
2023/09/21 08:13:13;;;;;;;;;;;;;;;28.57;36.66;99613.84;4923657;28;98524;-63
2023/09/21 08:15:39;;;;;;;;;;;;;;;30.41;35.14;99622.28;4940110;28;99008;-57
2023/09/21 08:18:07;;;;;;;;;;;;;;;31.00;35.21;99621.66;4926413;28;98105;-57
2023/09/21 08:20:33;;;;;;;;;;;;;;;30.82;35.75;99618.44;4948403;28;99181;-57
2023/09/21 08:22:59;;;;;;;;;;;;;;;30.74;36.18;99615.00;4924064;28;98733;-57
2023/09/21 08:25:25;;;;;;;;;;;;;;;30.36;36.48;99605.31;4921350;28;100394;-63
2023/09/21 08:27:51;;;;;;;;;;;;;;;29.95;37.30;99603.53;4948818;28;122086;-56
2023/09/21 08:30:17;;;;;;;;;;;;;;;29.66;37.54;99598.38;4926867;28;98187;-63
2023/09/21 08:32:44;;;;;;;;;;;;;;;29.51;38.18;99597.75;4918863;28;98900;-63
2023/09/21 08:35:11;;;;;;;;;;;;;;;29.49;37.94;99597.41;4911145;28;98411;-63
2023/09/21 08:37:37;;;;;;;;;;;;;;;29.52;38.16;99593.00;4912302;28;97992;-63
2023/09/21 08:40:06;;;;;;;;;;;;;;;29.55;38.19;99589.38;4921381;28;98185;-57
2023/09/21 08:42:32;;;;;;;;;;;;;;;29.62;38.28;99588.53;4885896;28;100063;-59
2023/09/21 08:44:59;;;;;;;;;;;;;;;29.70;38.56;99584.44;4901899;28;98236;-63
2023/09/21 08:47:25;;;;;;;;;;;;;;;29.83;38.28;99586.25;4940698;28;98407;-63
2023/09/21 08:49:51;;;;;;;;;;;;;;;29.98;38.16;99591.56;4937698;28;113619;-63
2023/09/21 08:52:17;;;;;;;;;;;;;;;30.12;38.39;99585.81;4921036;28;101281;-57
2023/09/21 08:54:43;;;;;;;;;;;;;;;30.31;38.32;99587.13;4949987;28;106984;-64
2023/09/21 08:57:11;;;;;;;;;;;;;;;30.52;38.34;99583.19;4924674;28;98406;-63
2023/09/21 08:59:41;;;;;;;;;;;;;;;30.69;38.23;99578.50;4950308;28;98137;-63
2023/09/21 09:02:11;;;;;;;;;;;;;;;30.90;37.96;99574.59;4916519;28;100036;-57
2023/09/21 09:04:38;;;;;;;;;;;;;;;31.11;37.93;99568.59;4923581;28;99817;-57
2023/09/21 09:07:04;;;;;;;;;;;;;;;31.28;38.01;99575.81;4936360;28;98123;-63
2023/09/21 09:09:30;;;;;;;;;;;;;;;31.45;38.19;99573.88;4926953;28;97841;-57
2023/09/21 09:11:57;;;;;;;;;;;;;;;31.60;37.68;99570.75;4918531;28;98404;-63
2023/09/21 09:14:23;;;;;;;;;;;;;;;31.77;37.93;99564.03;4933731;28;98252;-63
2023/09/21 09:16:51;;;;;;;;;;;;;;;31.95;37.89;99574.75;4926361;28;98130;-57
2023/09/21 09:19:17;;;;;;;;;;;;;;;32.01;37.68;99568.25;4958217;28;98166;-64
2023/09/21 09:21:48;;;;;;;;;;;;;;;32.06;37.87;99555.78;4929430;28;98233;-57
2023/09/21 09:24:14;;;;;;;;;;;;;;;32.21;37.47;99554.22;4930454;28;98209;-57
2023/09/21 09:26:41;;;;;;;;;;;;;;;32.47;37.29;99546.03;4932443;28;98763;-58
2023/09/21 09:29:12;;;;;;;;;;;;;;;32.70;37.20;99545.03;4907061;28;98525;-64
2023/09/21 09:31:41;;;;;;;;;;;;;;;32.96;37.21;99545.91;4941470;28;99943;-64
2023/09/21 09:34:07;;;;;;;;;;;;;;;33.14;36.80;99543.41;4938382;28;98810;-57
2023/09/21 09:36:34;;;;;;;;;;;;;;;33.41;37.16;99531.84;4927040;28;98835;-57
2023/09/21 09:39:08;;;;;;;;;;;;;;;33.67;36.94;99524.25;4941116;28;98459;-57
2023/09/21 09:41:34;;;;;;;;;;;;;;;33.98;36.55;99536.91;4921723;28;99954;-63
2023/09/21 09:44:00;;;;;;;;;;;;;;;34.21;36.24;99519.75;4940658;28;99452;-57
2023/09/21 09:46:26;;;;;;;;;;;;;;;34.41;36.25;99523.03;4957560;28;98419;-63
2023/09/21 09:48:57;;;;;;;;;;;;;;;34.59;36.19;99514.06;4925016;28;98029;-64
2023/09/21 09:51:26;;;;;;;;;;;;;;;34.81;36.16;99510.47;4953835;28;99699;-64
2023/09/21 09:53:53;;;;;;;;;;;;;;;35.08;36.08;99521.09;4947206;28;98008;-57
2023/09/21 09:56:19;;;;;;;;;;;;;;;35.31;36.11;99512.19;4928948;28;99695;-64
2023/09/21 09:58:47;;;;;;;;;;;;;;;35.50;35.73;99506.72;4930753;28;109395;-64
2023/09/21 10:01:14;;;;;;;;;;;;;;;35.57;35.51;99503.63;4947463;28;100445;-57
2023/09/21 10:03:40;;;;;;;;;;;;;;;35.77;35.75;99503.22;4958985;28;98933;-57
2023/09/21 10:06:09;;;;;;;;;;;;;;;35.96;35.35;99496.44;4931906;28;98416;-57
2023/09/21 10:08:39;;;;;;;;;;;;;;;36.22;35.50;99498.97;4946369;28;98118;-63
2023/09/21 10:11:07;;;;;;;;;;;;;;;36.51;35.15;99501.31;4928821;28;98858;-64
2023/09/21 10:13:51;;;;;;;;;;;;;;;36.60;35.02;99501.34;4940996;28;101542;-64
2023/09/21 10:16:18;;;;;;;;;;;;;;;36.77;35.11;99490.56;4945052;28;98472;-64
2023/09/21 10:18:44;;;;;;;;;;;;;;;37.01;35.18;99487.88;4943845;28;98278;-57
2023/09/21 10:21:30;;;;;;;;;;;;;;;37.25;35.03;99487.94;4949290;28;98642;-61
2023/09/21 10:24:03;;;;;;;;;;;;;;;37.47;34.83;99487.75;4929834;28;99558;-55
2023/09/21 10:26:38;;;;;;;;;;;;;;;37.56;34.81;99476.47;4959861;28;98171;-55
2023/09/21 10:29:06;;;;;;;;;;;;;;;37.75;34.89;99472.28;4942919;28;98229;-62
2023/09/21 10:31:42;;;;;;;;;;;;;;;37.86;34.30;99468.94;4948588;28;98078;-61
2023/09/21 10:34:12;;;;;;;;;;;;;;;38.04;34.10;99460.44;4944614;28;111972;-61
2023/09/21 10:36:43;;;;;;;;;;;;;;;38.24;34.26;99462.63;4932596;28;106118;-58
2023/09/21 10:39:12;;;;;;;;;;;;;;;38.54;34.08;99462.69;4934264;28;98573;-56
2023/09/21 10:41:43;;;;;;;;;;;;;;;38.82;33.88;99446.31;4959714;28;98912;-55
2023/09/21 10:44:09;;;;;;;;;;;;;;;39.15;34.05;99448.13;4949383;28;99675;-56
2023/09/21 10:46:37;;;;;;;;;;;;;;;39.34;34.00;99445.88;4958416;28;98015;-55
2023/09/21 10:49:06;;;;;;;;;;;;;;;39.24;33.98;99443.19;4955878;28;98313;-62
2023/09/21 10:51:33;;;;;;;;;;;;;;;39.17;34.25;99437.16;4961591;28;99482;-56
2023/09/21 10:53:59;;;;;;;;;;;;;;;39.15;34.34;99436.88;4942500;28;98421;-55
2023/09/21 10:56:29;;;;;;;;;;;;;;;39.10;34.33;99429.09;4947921;28;97988;-62
2023/09/21 10:58:55;;;;;;;;;;;;;;;39.11;33.94;99425.81;4929831;28;99533;-55
2023/09/21 11:01:21;;;;;;;;;;;;;;;39.26;34.01;99420.94;4909832;28;104641;-55
2023/09/21 11:03:50;;;;;;;;;;;;;;;39.72;33.91;99423.13;4939911;28;98319;-62
2023/09/21 11:06:19;;;;;;;;;;;;;;;40.12;33.46;99418.75;4961027;28;98162;-55
2023/09/21 11:08:49;;;;;;;;;;;;;;;40.46;33.15;99421.94;4950303;28;98078;-61
2023/09/21 11:11:15;;;;;;;;;;;;;;;40.90;31.20;99418.75;4956905;28;98559;-61
2023/09/21 11:13:42;;;;;;;;;;;;;;;40.87;32.68;99405.63;4928191;28;128728;-62
2023/09/21 11:16:09;;;;;;;;;;;;;;;40.98;32.48;99407.81;4915252;28;99082;-62
2023/09/21 11:18:38;;;;;;;;;;;;;;;41.16;32.35;99398.19;4944039;28;100034;-56
2023/09/21 11:21:04;;;;;;;;;;;;;;;41.22;32.59;99398.97;4943515;28;114968;-57
2023/09/21 11:23:33;;;;;;;;;;;;;;;41.18;32.92;99387.91;4911217;28;105274;-63
2023/09/21 11:26:05;;;;;;;;;;;;;;;41.19;32.59;99394.34;4927044;28;129605;-57
2023/09/21 11:28:32;;;;;;;;;;;;;;;41.25;32.74;99388.72;4952721;28;98038;-63
2023/09/21 11:30:58;;;;;;;;;;;;;;;41.19;32.69;99371.75;4940198;28;98296;-63
2023/09/21 11:33:27;;;;;;;;;;;;;;;41.09;32.48;99370.41;4943881;28;99727;-57
2023/09/21 11:35:53;;;;;;;;;;;;;;;40.92;32.63;99376.69;4925489;28;98490;-57
2023/09/21 11:38:20;;;;;;;;;;;;;;;40.84;32.77;99367.13;4921975;28;99466;-56
2023/09/21 11:40:49;;;;;;;;;;;;;;;40.82;33.25;99349.91;4941046;28;98818;-63
2023/09/21 11:43:16;;;;;;;;;;;;;;;40.86;33.17;99352.50;4903066;28;98396;-62
2023/09/21 11:45:45;;;;;;;;;;;;;;;40.72;33.00;99351.38;4914502;28;99022;-63
2023/09/21 11:48:12;;;;;;;;;;;;;;;40.55;33.10;99344.81;4938252;28;98135;-63
2023/09/21 11:50:39;;;;;;;;;;;;;;;40.45;33.24;99349.84;4953797;28;98230;-63
2023/09/21 11:53:07;;;;;;;;;;;;;;;40.37;33.13;99331.81;4930848;28;98703;-57
2023/09/21 11:55:33;;;;;;;;;;;;;;;40.26;33.21;99340.19;4923082;28;98573;-57
2023/09/21 11:58:12;;;;;;;;;;;;;;;40.27;33.37;99336.09;4936032;28;98394;-56
2023/09/21 12:00:49;;;;;;;;;;;;;;;40.07;33.27;99328.44;4939382;28;97965;-57
2023/09/21 12:03:16;;;;;;;;;;;;;;;39.92;33.71;99326.47;4923233;28;99371;-63
2023/09/21 12:05:45;;;;;;;;;;;;;;;39.72;33.94;99323.69;4953825;28;99032;-63
2023/09/21 12:08:13;;;;;;;;;;;;;;;39.44;33.97;99318.47;4941668;28;98081;-63
2023/09/21 12:10:40;;;;;;;;;;;;;;;39.12;33.66;99316.75;4936350;28;103932;-63
2023/09/21 12:13:07;;;;;;;;;;;;;;;38.80;33.88;99316.53;4938877;28;99293;-57
2023/09/21 12:15:34;;;;;;;;;;;;;;;38.55;33.97;99313.06;4950760;28;98447;-63
2023/09/21 12:18:01;;;;;;;;;;;;;;;38.30;34.39;99303.16;4908983;28;100045;-63
2023/09/21 12:20:27;;;;;;;;;;;;;;;38.10;34.41;99305.88;4913770;28;98644;-57
2023/09/21 12:22:53;;;;;;;;;;;;;;;37.87;35.14;99298.25;4952573;28;98117;-56
2023/09/21 12:25:20;;;;;;;;;;;;;;;37.63;35.26;99301.91;4940581;28;112859;-57
2023/09/21 12:27:47;;;;;;;;;;;;;;;37.34;34.94;99292.09;4938817;28;98454;-57
2023/09/21 12:30:14;;;;;;;;;;;;;;;37.06;34.69;99291.50;4955243;28;99797;-56
2023/09/21 12:32:41;;;;;;;;;;;;;;;36.81;34.89;99289.09;4938688;28;98160;-57
2023/09/21 12:35:08;;;;;;;;;;;;;;;36.58;35.03;99293.41;4923287;28;98189;-63
2023/09/21 12:37:35;;;;;;;;;;;;;;;36.36;35.22;99288.03;4941282;28;98808;-63
2023/09/21 12:40:06;;;;;;;;;;;;;;;36.18;35.53;99290.88;4935027;28;98630;-63
2023/09/21 12:42:32;;;;;;;;;;;;;;;35.95;35.61;99281.84;4926667;28;98386;-56
2023/09/21 12:44:58;;;;;;;;;;;;;;;35.84;35.07;99281.53;4939962;28;98601;-57
2023/09/21 12:47:25;;;;;;;;;;;;;;;35.52;35.70;99285.75;4923730;28;98152;-63